Time;durP1;ratioP1;P1;durP2;ratioP2;P2;SDS_P1;SDS_P2;PMS_P1;PMS_P2;Temp;Humidity;BMP_temperature;BMP_pressure;BME280_temperature;BME280_humidity;BME280_pressure;Samples;Min_cycle;Max_cycle;Signal;HPM_P1;HPM_P2
2021/12/09 00:22:53;;;;;;;1.35;0.40;;;;;;;7.95;61.92;95996.94;5584331;22;15855217;-96
2021/12/09 00:28:45;;;;;;;0.70;0.25;;;;;;;12.18;52.79;95979.72;6237413;22;20004;-94
2021/12/09 00:31:14;;;;;;;0.82;0.20;;;;;;;9.79;59.13;95982.38;6244332;23;20048;-96
2021/12/09 00:33:49;;;;;;;1.38;0.35;;;;;;;10.76;59.38;96021.66;6249883;23;20011;-94
2021/12/09 00:36:31;;;;;;;1.20;0.40;;;;;;;7.97;59.10;95989.91;6243670;23;20091;-95
2021/12/09 00:39:49;;;;;;;1.55;0.40;;;;;;;9.57;62.76;96028.53;6243255;23;20051;-95
2021/12/09 00:42:17;;;;;;;2.30;0.32;;;;;;;6.51;69.99;95993.19;6242877;23;20750;-94
2021/12/09 02:22:56;;;;;;;10.38;1.80;;;;;;;12.49;53.78;96116.41;5103876;27;20408;-90
2021/12/09 02:25:44;;;;;;;11.63;2.00;;;;;;;12.28;54.42;96102.81;5082867;28;20038;-90
2021/12/09 02:28:07;;;;;;;11.50;1.55;;;;;;;10.19;59.90;96063.69;5079737;28;20052;-90
2021/12/09 02:30:33;;;;;;;11.45;1.95;;;;;;;8.20;63.79;96090.16;5064301;28;20511;-88
2021/12/09 02:33:07;;;;;;;7.85;1.70;;;;;;;8.57;64.91;96016.78;5061307;28;20036;-91
2021/12/09 02:35:33;;;;;;;11.68;1.60;;;;;;;9.85;61.16;96094.00;5062633;28;20026;-91
2021/12/09 02:37:59;;;;;;;10.57;1.50;;;;;;;13.44;51.00;96153.44;5059913;28;20016;-90
2021/12/09 02:40:26;;;;;;;17.70;2.20;;;;;;;12.63;53.17;96066.72;5064004;28;20042;-90
2021/12/09 02:43:07;;;;;;;7.35;1.58;;;;;;;11.54;56.23;96028.69;5065498;28;20051;-89
2021/12/09 02:45:33;;;;;;;11.32;1.73;;;;;;;10.72;58.54;96119.19;5079666;28;20081;-91
2021/12/09 02:47:59;;;;;;;13.70;1.92;;;;;;;12.97;55.54;96165.84;5063231;28;20051;-90
2021/12/09 02:50:25;;;;;;;10.15;1.70;;;;;;;10.95;57.99;96115.34;5063581;28;20133;-91
2021/12/09 02:52:51;;;;;;;12.73;1.75;;;;;;;12.50;59.29;96149.44;5062498;28;20553;-90
2021/12/09 02:55:16;;;;;;;11.38;2.22;;;;;;;12.89;53.95;96174.16;5062137;28;20024;-91
2021/12/09 02:57:42;;;;;;;10.80;1.90;;;;;;;7.42;63.71;96187.56;5059352;28;20044;-90
2021/12/09 03:00:10;;;;;;;12.45;1.95;;;;;;;10.17;68.04;96191.34;5065360;28;20073;-90
2021/12/09 03:02:36;;;;;;;16.40;1.85;;;;;;;9.65;65.60;96165.25;5060957;28;20032;-90
2021/12/09 03:05:05;;;;;;;6.30;1.60;;;;;;;7.21;71.19;96165.88;5064903;28;20742;-90
2021/12/09 03:07:35;;;;;;;7.07;1.67;;;;;;;10.14;67.41;96155.03;5079534;28;20024;-91
2021/12/09 03:10:09;;;;;;;8.52;1.75;;;;;;;10.39;57.58;96179.91;5060932;28;20032;-91
2021/12/09 03:12:40;;;;;;;9.38;2.22;;;;;;;10.37;68.07;96194.81;5081421;28;20510;-91
2021/12/09 03:15:08;;;;;;;14.07;1.75;;;;;;;12.19;57.33;96187.81;5062608;28;20032;-91
2021/12/09 03:17:35;;;;;;;9.65;1.88;;;;;;;12.82;56.61;96199.00;5082426;28;20097;-91
2021/12/09 03:20:05;;;;;;;11.88;1.85;;;;;;;12.90;53.55;96186.31;5063649;28;20028;-90
2021/12/09 03:22:30;;;;;;;12.88;2.00;;;;;;;12.57;57.01;96202.22;5078209;28;20044;-91
2021/12/09 03:24:56;;;;;;;18.00;2.53;;;;;;;10.95;60.71;96192.75;5064086;28;20051;-90
2021/12/09 03:27:22;;;;;;;16.45;3.90;;;;;;;11.00;62.27;96207.25;5060699;28;20036;-90
2021/12/09 03:29:47;;;;;;;14.57;2.35;;;;;;;10.50;63.48;96221.91;5061966;28;20063;-91
2021/12/09 03:32:18;;;;;;;13.90;2.00;;;;;;;11.05;65.46;96127.00;5061078;28;20020;-90
2021/12/09 03:34:44;;;;;;;20.20;2.80;;;;;;;9.56;69.61;96237.59;5048237;28;20031;-90
2021/12/09 03:37:14;;;;;;;17.83;3.90;;;;;;;7.91;70.81;96205.56;5064047;28;20028;-90
2021/12/09 03:39:41;;;;;;;11.18;2.17;;;;;;;7.62;71.76;96140.09;5050617;28;20032;-91
2021/12/09 03:42:10;;;;;;;12.93;2.40;;;;;;;7.84;71.75;96224.88;5051275;28;20025;-90
2021/12/09 03:44:37;;;;;;;11.00;2.00;;;;;;;13.70;59.29;96235.59;5048480;28;20044;-90
2021/12/09 03:47:05;;;;;;;11.80;1.88;;;;;;;15.05;51.44;96229.59;5063699;28;20079;-90
2021/12/09 03:49:31;;;;;;;13.60;2.08;;;;;;;13.47;56.24;96242.25;5048420;28;20056;-90
2021/12/09 03:51:57;;;;;;;12.40;2.00;;;;;;;14.41;50.17;96209.31;5046862;28;20054;-90
2021/12/09 03:54:24;;;;;;;19.80;2.03;;;;;;;12.21;53.64;96203.41;5046782;28;20488;-90
2021/12/09 03:56:50;;;;;;;11.20;1.90;;;;;;;12.37;57.04;96232.09;5065125;28;20032;-91
2021/12/09 03:59:16;;;;;;;17.73;2.20;;;;;;;11.61;55.66;96208.38;5051947;28;20024;-90
2021/12/09 04:01:43;;;;;;;12.50;1.95;;;;;;;13.16;55.25;96244.09;5048967;28;20040;-90
2021/12/09 04:04:09;;;;;;;7.00;1.67;;;;;;;13.08;52.02;96213.16;5052399;28;20564;-92
2021/12/09 04:06:40;;;;;;;11.32;1.85;;;;;;;10.97;60.33;96249.13;5044644;28;20400;-91
2021/12/09 04:09:08;;;;;;;17.50;2.00;;;;;;;12.74;58.42;96237.84;5064396;28;20028;-91
2021/12/09 04:11:34;;;;;;;11.73;2.00;;;;;;;11.54;61.09;96133.94;5058854;28;20038;-91
2021/12/09 04:14:00;;;;;;;13.52;3.05;;;;;;;13.55;53.96;96205.13;5049172;28;20052;-90
2021/12/09 04:16:35;;;;;;;8.38;1.80;;;;;;;10.96;58.84;96140.53;5048735;28;20117;-90
2021/12/09 04:19:17;;;;;;;6.25;1.60;;;;;;;11.78;58.00;96227.50;5047883;28;20693;-91
2021/12/09 04:22:03;;;;;;;10.73;1.58;;;;;;;9.34;63.35;96140.66;5041335;28;20059;-91
2021/12/09 04:24:39;;;;;;;9.93;1.27;;;;;;;11.94;61.05;96230.13;5043251;28;20486;-91
2021/12/09 04:27:07;;;;;;;3.85;0.88;;;;;;;11.35;61.38;96134.09;5041690;28;20123;-90
2021/12/09 04:29:56;;;;;;;6.78;1.00;;;;;;;9.42;62.95;96135.91;5046427;28;21657;-90
2021/12/09 04:32:28;;;;;;;8.05;1.63;;;;;;;10.55;57.90;96159.16;5040754;28;20108;-90
2021/12/09 04:34:56;;;;;;;7.88;1.83;;;;;;;14.44;48.64;96172.38;5042359;28;20104;-90
2021/12/09 04:37:22;;;;;;;9.10;1.40;;;;;;;11.85;61.68;96210.56;5041858;28;20089;-90
2021/12/09 04:40:05;;;;;;;8.95;2.22;;;;;;;12.06;57.15;96145.84;5044034;28;20127;-90
2021/12/09 04:42:31;;;;;;;8.40;1.50;;;;;;;13.89;53.16;96299.94;5042981;28;20218;-90
2021/12/09 04:45:11;;;;;;;8.68;1.17;;;;;;;10.83;56.04;96162.94;5039939;28;20116;-89
2021/12/09 04:47:37;;;;;;;6.30;0.98;;;;;;;10.03;61.95;96277.13;5052092;28;20028;-90
2021/12/09 04:50:05;;;;;;;7.63;1.00;;;;;;;11.06;61.44;96331.28;5045512;28;20348;-88
2021/12/09 04:52:31;;;;;;;6.10;1.23;;;;;;;8.75;66.48;96326.91;5040361;28;20123;-90
2021/12/09 04:54:56;;;;;;;7.45;1.13;;;;;;;8.91;67.62;96337.53;5042720;28;20696;-90
2021/12/09 04:57:22;;;;;;;7.43;1.10;;;;;;;8.90;68.36;96322.84;5044385;28;20078;-89
2021/12/09 04:59:53;;;;;;;8.38;1.38;;;;;;;7.54;67.53;96341.03;5042413;28;20036;-88
2021/12/09 05:02:38;;;;;;;9.88;1.52;;;;;;;11.18;67.25;96301.97;5041878;28;20031;-89
2021/12/09 05:05:04;;;;;;;9.50;1.20;;;;;;;14.52;54.84;96353.69;5042681;28;20520;-89
2021/12/09 05:07:32;;;;;;;6.55;1.63;;;;;;;14.61;60.31;96266.53;5045353;28;20078;-89
2021/12/09 05:10:01;;;;;;;7.90;1.10;;;;;;;8.07;62.58;96272.44;5040201;28;20151;-88
2021/12/09 05:12:27;;;;;;;3.38;0.65;;;;;;;9.34;67.19;96365.19;5040914;28;20021;-89
2021/12/09 05:14:53;;;;;;;3.45;0.60;;;;;;;14.45;57.91;96302.56;5044760;28;20036;-89
2021/12/09 05:17:19;;;;;;;4.28;0.63;;;;;;;7.55;64.21;96298.63;5042662;28;20102;-88
2021/12/09 05:19:45;;;;;;;2.53;0.70;;;;;;;8.62;62.91;96283.25;5042698;28;20044;-88
2021/12/09 05:22:12;;;;;;;3.72;0.45;;;;;;;12.89;61.72;96359.06;5039599;28;20052;-89
2021/12/09 05:25:00;;;;;;;;;;;;;;;;;;;;;
2021/12/09 05:27:36;;;;;;;3.25;0.70;;;;;;;8.80;63.11;96245.25;5040689;28;20041;-90
2021/12/09 05:30:12;;;;;;;4.65;1.35;;;;;;;7.09;69.01;96219.00;5040739;28;20020;-89
2021/12/09 05:32:38;;;;;;;5.35;1.13;;;;;;;7.27;70.75;96325.53;5043595;28;20025;-91
2021/12/09 05:35:11;;;;;;;5.45;0.80;;;;;;;12.77;59.62;96229.81;5041451;28;20405;-89
2021/12/09 05:38:18;;;;;;;6.10;1.00;;;;;;;8.26;65.27;96304.56;5041373;28;20036;-90
2021/12/09 05:40:55;;;;;;;8.77;1.25;;;;;;;7.13;71.74;96230.13;5027497;28;20139;-90
2021/12/09 05:43:35;;;;;;;10.13;2.40;;;;;;;7.03;74.54;96237.38;5043099;28;20056;-91
2021/12/09 05:46:15;;;;;;;11.15;2.00;;;;;;;6.80;74.91;96243.34;5042235;28;20028;-91
2021/12/09 05:49:10;;;;;;;11.52;2.03;;;;;;;8.13;68.86;96259.25;5039116;28;20440;-90
2021/12/09 05:52:03;;;;;;;19.30;2.58;;;;;;;9.17;75.81;96308.69;5040599;28;20082;-91
2021/12/09 05:54:35;;;;;;;20.30;2.40;;;;;;;6.88;71.73;96237.94;5057776;28;20040;-90
2021/12/09 05:57:08;;;;;;;17.15;2.30;;;;;;;7.51;70.17;96227.84;5040683;28;20040;-90
2021/12/09 06:00:11;;;;;;;13.35;2.20;;;;;;;9.87;71.00;96283.03;5042664;28;20111;-90
2021/12/09 06:03:07;;;;;;;15.38;2.70;;;;;;;6.89;75.56;96230.09;5041734;28;20025;-91
2021/12/09 06:05:49;;;;;;;12.82;2.40;;;;;;;13.05;59.67;96298.81;5042176;28;20033;-90
2021/12/09 06:08:36;;;;;;;16.02;2.67;;;;;;;7.41;70.01;96281.81;5043105;28;20024;-90
2021/12/09 06:11:11;;;;;;;14.50;2.03;;;;;;;6.83;72.11;96241.53;5040114;28;20029;-91
2021/12/09 06:13:38;;;;;;;18.35;2.63;;;;;;;7.50;73.78;96384.34;5043381;28;20512;-91
2021/12/09 06:16:27;;;;;;;13.75;1.90;;;;;;;8.13;66.61;96236.72;5042062;28;20519;-89
2021/12/09 06:18:59;;;;;;;15.73;2.15;;;;;;;7.00;75.18;96320.38;5036777;28;20033;-90
2021/12/09 06:21:45;;;;;;;17.48;2.13;;;;;;;8.02;71.55;96229.34;5039788;28;20530;-91
2021/12/09 06:24:20;;;;;;;21.55;3.38;;;;;;;9.53;69.64;96237.75;5042689;28;20417;-92
2021/12/09 06:27:03;;;;;;;15.60;2.08;;;;;;;13.96;59.08;96252.31;5044649;28;20033;-92
2021/12/09 06:29:46;;;;;;;16.27;2.30;;;;;;;7.39;74.50;96335.50;5044263;28;20137;-92
2021/12/09 06:32:26;;;;;;;12.30;2.10;;;;;;;10.12;73.15;96296.66;5038255;28;20017;-89
2021/12/09 06:35:04;;;;;;;11.30;2.08;;;;;;;7.01;72.47;96241.75;5029722;28;20083;-90
2021/12/09 06:37:49;;;;;;;13.05;2.22;;;;;;;8.76;64.97;96224.69;5041350;28;20021;-90
2021/12/09 06:40:27;;;;;;;33.78;3.28;;;;;;;6.53;76.14;96252.91;5043227;28;20055;-89
2021/12/09 06:43:42;;;;;;;12.63;2.13;;;;;;;7.64;77.26;96404.63;5040855;28;20090;-88
2021/12/09 06:46:12;;;;;;;18.30;2.63;;;;;;;8.99;75.71;96250.53;4998865;28;20057;-89
2021/12/09 06:48:38;;;;;;;14.25;2.47;;;;;;;9.27;74.62;96284.88;4979262;28;20046;-90
2021/12/09 06:51:07;;;;;;;15.35;2.25;;;;;;;8.29;71.13;96334.75;4982853;28;20112;-91
2021/12/09 06:53:44;;;;;;;16.80;2.85;;;;;;;8.71;76.37;96253.44;5001810;28;20161;-92
2021/12/09 06:56:18;;;;;;;18.08;2.75;;;;;;;7.51;76.52;96318.63;4989481;28;20048;-91
2021/12/09 06:59:02;;;;;;;15.70;3.08;;;;;;;7.66;76.33;96273.97;5001428;28;20042;-92
2021/12/09 07:01:37;;;;;;;;;;;;;;;7.84;77.33;96425.53;4985990;28;20092;-89
2021/12/09 07:04:29;;;;;;;;;;;;;;;;;;;;;
2021/12/09 07:06:57;;;;;;;17.85;2.92;;;;;;;9.45;73.03;96276.28;4988841;28;20037;-90
2021/12/09 07:09:39;;;;;;;17.42;2.38;;;;;;;7.76;77.24;96373.06;5004404;28;20135;-90
2021/12/09 07:12:40;;;;;;;14.60;2.35;;;;;;;8.81;69.44;96296.34;4987575;28;20034;-89
2021/12/09 07:15:18;;;;;;;16.27;2.65;;;;;;;8.34;74.48;96288.69;4980292;28;20041;-91
2021/12/09 07:17:51;;;;;;;19.02;3.17;;;;;;;8.13;67.94;96337.13;5030064;28;20084;-88
2021/12/09 07:20:25;;;;;;;21.42;3.40;;;;;;;7.84;69.36;96310.50;5039928;28;20049;-90
2021/12/09 07:22:56;;;;;;;16.80;2.95;;;;;;;7.32;71.68;96295.97;5065447;28;20070;-89
2021/12/09 07:25:27;;;;;;;12.95;2.13;;;;;;;7.92;66.39;96320.59;5046323;28;20550;-89
2021/12/09 07:27:56;;;;;;;19.02;2.60;;;;;;;6.68;72.80;96327.53;5044911;28;20036;-87
2021/12/09 07:30:26;;;;;;;21.52;3.28;;;;;;;13.19;68.51;96338.09;5063862;28;20043;-86
2021/12/09 07:32:57;;;;;;;8.98;2.00;;;;;;;6.52;74.67;96334.09;5063401;28;20021;-86
2021/12/09 07:35:26;;;;;;;14.20;2.28;;;;;;;7.35;76.26;96437.63;5061960;28;20501;-86
2021/12/09 07:37:51;;;;;;;16.08;2.20;;;;;;;15.20;62.34;96425.47;5063834;28;20032;-86
2021/12/09 07:40:19;;;;;;;15.20;3.28;;;;;;;11.33;71.11;96489.97;5065525;28;20028;-87
2021/12/09 07:42:45;;;;;;;18.05;2.58;;;;;;;8.47;72.19;96483.88;5048350;28;20044;-87
2021/12/09 07:45:12;;;;;;;16.48;3.17;;;;;;;8.34;72.14;96497.28;5047431;28;20024;-86
2021/12/09 07:47:40;;;;;;;21.10;2.92;;;;;;;11.77;69.64;96502.59;5043820;28;20033;-86
2021/12/09 07:50:10;;;;;;;17.05;2.78;;;;;;;9.87;65.66;96470.47;5064637;28;20035;-86
2021/12/09 07:52:36;;;;;;;25.17;2.40;;;;;;;14.00;69.53;96502.75;5061063;28;20203;-87
2021/12/09 07:55:03;;;;;;;15.25;2.97;;;;;;;10.48;70.88;96528.66;5047773;28;20159;-87
2021/12/09 07:57:33;;;;;;;25.50;3.35;;;;;;;9.46;66.74;96534.66;5060104;28;20028;-87
2021/12/09 08:00:11;;;;;;;26.75;3.17;;;;;;;8.65;68.03;96484.94;5061582;28;20078;-86
2021/12/09 08:02:37;;;;;;;20.75;2.50;;;;;;;10.96;70.20;96411.72;5062114;28;20071;-87
2021/12/09 08:05:03;;;;;;;15.05;2.80;;;;;;;8.49;66.65;96514.09;5066466;28;20564;-87
2021/12/09 08:07:29;;;;;;;17.88;3.55;;;;;;;8.83;67.86;96471.22;5043204;28;20032;-87
2021/12/09 08:09:55;;;;;;;14.68;3.00;;;;;;;8.66;70.68;96520.44;5063687;28;20186;-87
2021/12/09 08:12:20;;;;;;;24.33;3.78;;;;;;;16.50;52.42;96535.97;5043329;28;20066;-87
2021/12/09 08:14:46;;;;;;;16.80;3.63;;;;;;;8.39;69.02;96502.31;5048700;28;20032;-86
2021/12/09 08:20:16;;;;;;;22.92;3.90;;;;;;;8.73;69.22;96536.59;4974182;28;20482;-87
2021/12/09 08:22:43;;;;;;;12.75;3.08;;;;;;;8.11;73.62;96508.50;4970750;28;20054;-86
2021/12/09 08:25:13;;;;;;;26.17;3.90;;;;;;;7.79;74.83;96528.63;4966831;28;20157;-87
2021/12/09 08:27:42;;;;;;;18.15;3.67;;;;;;;7.70;75.76;96521.16;4968755;28;20041;-87
2021/12/09 08:30:10;;;;;;;14.35;3.90;;;;;;;7.60;75.96;96505.06;4975793;28;20034;-86
2021/12/09 08:32:35;;;;;;;22.55;4.38;;;;;;;6.81;77.50;96494.59;4955103;28;20022;-87
2021/12/09 08:35:01;;;;;;;17.10;3.65;;;;;;;7.30;75.10;96475.81;4955345;28;20053;-87
2021/12/09 08:37:27;;;;;;;21.33;4.63;;;;;;;7.58;75.23;96500.81;4955107;28;20037;-87
2021/12/09 08:39:56;;;;;;;18.95;4.07;;;;;;;7.13;74.82;96503.09;4970787;28;20047;-87
2021/12/09 08:42:21;;;;;;;15.93;3.92;;;;;;;7.76;77.17;96470.81;4978353;28;20609;-88
2021/12/09 08:44:47;;;;;;;16.70;4.30;;;;;;;7.89;66.55;96513.63;4952876;28;20031;-87
2021/12/09 08:47:13;;;;;;;17.05;4.65;;;;;;;7.77;74.99;96491.50;4971962;28;20065;-87
2021/12/09 08:49:39;;;;;;;20.48;4.35;;;;;;;16.78;61.25;96451.63;4974405;28;20026;-87
2021/12/09 08:52:05;;;;;;;18.75;3.40;;;;;;;16.11;48.92;96472.00;4957081;28;20637;-88
2021/12/09 08:54:30;;;;;;;14.90;3.20;;;;;;;12.60;51.25;96473.97;5010777;28;20049;-88
2021/12/09 08:56:58;;;;;;;12.52;2.85;;;;;;;6.15;75.51;96455.09;5038785;28;20032;-94
2021/12/09 08:59:27;;;;;;;15.98;3.08;;;;;;;6.78;78.64;96463.59;5041786;28;20043;-94
2021/12/09 09:01:57;;;;;;;13.90;2.90;;;;;;;9.64;74.67;96395.16;5040675;28;20037;-91
2021/12/09 09:04:25;;;;;;;17.88;2.80;;;;;;;6.12;78.55;96390.50;5043143;28;20032;-91
2021/12/09 09:06:54;;;;;;;17.80;3.17;;;;;;;6.18;78.48;96372.22;5043336;28;20655;-92
2021/12/09 09:09:26;;;;;;;11.93;3.13;;;;;;;6.30;81.96;96366.69;5042768;28;20037;-91
2021/12/09 09:11:52;;;;;;;12.60;2.33;;;;;;;6.15;76.73;96378.34;5043452;28;20031;-90
2021/12/09 09:14:17;;;;;;;13.05;3.22;;;;;;;7.76;72.97;96367.03;5043689;28;20070;-92
2021/12/09 09:16:46;;;;;;;11.32;2.72;;;;;;;6.23;76.80;96387.59;5043850;28;20041;-92
2021/12/09 09:19:21;;;;;;;18.45;2.88;;;;;;;6.32;80.65;96401.13;5042908;28;20095;-93
2021/12/09 09:22:43;;;;;;;20.83;3.17;;;;;;;7.25;78.08;96433.63;5058594;28;20056;-92
2021/12/09 09:25:28;;;;;;;13.73;3.72;;;;;;;7.14;78.61;96429.66;5032675;28;20064;-92
2021/12/09 09:27:56;;;;;;;20.75;4.35;;;;;;;7.88;75.45;96428.00;5038834;28;20055;-90
2021/12/09 09:30:22;;;;;;;19.15;3.58;;;;;;;8.13;74.96;96412.41;5033326;28;20028;-89
2021/12/09 09:32:51;;;;;;;17.45;3.03;;;;;;;8.24;76.52;96547.00;5040943;28;20504;-89
2021/12/09 09:35:18;;;;;;;17.30;3.60;;;;;;;8.18;77.59;96458.06;5040560;28;20033;-89
2021/12/09 09:37:56;;;;;;;19.65;4.45;;;;;;;8.27;76.80;96552.13;5031201;28;20049;-88
2021/12/09 09:40:27;;;;;;;18.55;4.10;;;;;;;7.95;76.62;96497.81;5040104;28;20047;-90
2021/12/09 09:43:04;;;;;;;17.42;3.10;;;;;;;7.34;76.77;96441.09;5040757;28;20048;-90
2021/12/09 09:45:36;;;;;;;15.00;3.17;;;;;;;7.62;74.69;96432.38;5044080;28;20052;-89
2021/12/09 09:48:22;;;;;;;15.85;3.17;;;;;;;8.57;74.16;96564.94;5039477;28;20143;-89
2021/12/09 09:51:01;;;;;;;16.45;2.95;;;;;;;8.78;73.13;96482.72;5032488;28;20132;-89
2021/12/09 09:53:32;;;;;;;23.95;3.35;;;;;;;8.04;71.51;96444.72;5040265;28;20044;-90
2021/12/09 09:56:13;;;;;;;19.23;3.60;;;;;;;7.89;72.60;96440.94;5039693;28;20400;-89
2021/12/09 09:58:40;;;;;;;13.43;2.67;;;;;;;16.52;62.47;96513.06;5044112;28;20024;-89
2021/12/09 10:01:05;;;;;;;14.40;2.85;;;;;;;7.03;74.64;96538.00;5031288;28;20036;-90
2021/12/09 10:03:45;;;;;;;19.25;3.00;;;;;;;7.38;74.38;96465.19;5038748;28;20039;-89
2021/12/09 10:06:13;;;;;;;17.23;4.70;;;;;;;8.65;74.43;96524.75;5040780;28;20360;-89
2021/12/09 10:08:39;;;;;;;17.77;4.07;;;;;;;8.00;75.33;96529.66;5039411;28;20025;-90
2021/12/09 10:11:09;;;;;;;14.23;3.17;;;;;;;8.12;76.71;96536.16;5040736;28;20524;-89
2021/12/09 10:13:40;;;;;;;14.65;3.65;;;;;;;7.20;76.82;96456.28;5044690;28;20029;-89
2021/12/09 10:16:21;;;;;;;17.45;3.85;;;;;;;8.23;76.55;96571.31;5038665;28;20046;-88
2021/12/09 10:18:51;;;;;;;22.52;4.68;;;;;;;7.42;76.14;96496.16;5035597;28;20044;-89
2021/12/09 10:21:30;;;;;;;16.27;4.63;;;;;;;9.00;72.18;96558.97;5044744;28;20063;-90
2021/12/09 10:24:07;;;;;;;17.02;4.90;;;;;;;7.62;77.06;96538.72;5061910;28;20029;-91
2021/12/09 10:26:36;;;;;;;16.13;4.72;;;;;;;7.93;75.53;96555.84;5036666;28;20025;-89
2021/12/09 10:29:15;;;;;;;18.35;4.63;;;;;;;8.37;74.93;96561.25;5060792;28;20044;-90
2021/12/09 10:31:43;;;;;;;20.90;5.57;;;;;;;8.74;71.86;96574.69;5061897;28;20021;-89
2021/12/09 10:37:00;;;;;;;20.15;6.63;;;;;;;8.67;72.77;96563.66;5062843;28;20074;-89
2021/12/09 10:39:46;;;;;;;22.15;6.03;;;;;;;7.85;72.74;96567.34;5054470;28;20047;-89
2021/12/09 10:42:52;;;;;;;27.65;8.55;;;;;;;8.53;74.37;96577.16;5059406;28;20028;-89
2021/12/09 10:45:31;;;;;;;23.95;7.57;;;;;;;9.03;71.63;96579.66;5041093;28;20153;-90
2021/12/09 10:48:11;;;;;;;28.30;8.77;;;;;;;9.35;69.05;96519.47;5058358;28;20039;-89
2021/12/09 10:50:48;;;;;;;23.38;8.75;;;;;;;9.19;67.95;96584.28;5054036;28;20039;-89
2021/12/09 10:55:52;;;;;;;27.50;8.55;;;;;;;9.52;68.65;96542.22;5067169;28;20040;-89
2021/12/09 10:58:26;;;;;;;22.88;8.23;;;;;;;8.31;68.31;96506.94;5031569;28;20035;-89
2021/12/09 11:01:03;;;;;;;25.35;8.07;;;;;;;8.87;67.58;96451.19;5043948;28;20052;-89
2021/12/09 11:03:35;;;;;;;23.35;8.35;;;;;;;8.83;68.89;96562.19;5060739;28;20028;-89
2021/12/09 11:06:06;;;;;;;22.02;8.05;;;;;;;10.00;68.62;96558.47;5062862;28;20036;-89
2021/12/09 11:08:34;;;;;;;18.75;7.50;;;;;;;9.36;68.63;96552.41;5063089;28;20040;-89
2021/12/09 11:11:13;;;;;;;22.75;7.15;;;;;;;9.29;68.87;96540.56;5066946;28;20091;-89
2021/12/09 11:13:40;;;;;;;18.05;5.28;;;;;;;8.86;68.12;96556.88;5046680;28;20029;-89
2021/12/09 11:16:07;;;;;;;21.13;5.55;;;;;;;8.99;68.05;96548.63;5066054;28;20044;-88
2021/12/09 11:18:37;;;;;;;18.10;4.53;;;;;;;8.40;68.96;96548.16;5046215;28;20044;-89
2021/12/09 11:21:08;;;;;;;14.02;4.47;;;;;;;9.93;65.74;96541.44;5066884;28;20035;-89
2021/12/09 11:23:44;;;;;;;13.40;4.10;;;;;;;10.54;65.67;96517.94;5059949;28;20032;-89
2021/12/09 11:26:55;;;;;;;14.13;3.88;;;;;;;9.87;63.91;96534.72;5065075;28;20035;-89
2021/12/09 11:29:23;;;;;;;16.45;3.40;;;;;;;10.73;60.32;96545.78;5064025;28;20025;-89
2021/12/09 11:32:00;;;;;;;13.32;3.45;;;;;;;10.33;61.96;96542.34;5048757;28;20037;-89
2021/12/09 11:34:33;;;;;;;19.00;3.42;;;;;;;10.58;62.01;96537.75;5053709;28;20051;-89
2021/12/09 11:37:09;;;;;;;12.07;2.90;;;;;;;9.46;64.26;96467.84;5053802;28;20031;-89
2021/12/09 11:39:36;;;;;;;14.35;3.45;;;;;;;10.47;60.45;96544.38;5050489;28;20029;-89
2021/12/09 11:42:16;;;;;;;13.07;2.63;;;;;;;9.35;65.41;96540.28;5046510;28;20033;-89
2021/12/09 11:44:49;;;;;;;14.40;2.47;;;;;;;10.02;62.58;96437.72;5046218;28;20795;-88
2021/12/09 11:47:17;;;;;;;12.70;2.70;;;;;;;9.97;65.48;96559.47;5062870;28;20044;-90
2021/12/09 11:49:44;;;;;;;14.55;2.15;;;;;;;10.12;64.27;96541.47;5051004;28;20440;-88
2021/12/09 11:52:15;;;;;;;12.65;2.10;;;;;;;10.25;62.70;96485.34;5062178;28;20029;-87
2021/12/09 11:54:54;;;;;;;18.65;2.53;;;;;;;10.05;64.96;96549.56;5058028;28;20548;-88
2021/12/09 12:11:56;;;;;;;20.13;2.22;;;;;;;10.07;62.71;96528.66;5065916;28;20124;-89
2021/12/09 12:14:39;;;;;;;12.52;2.28;;;;;;;10.41;62.35;96506.41;5066817;28;20033;-89
2021/12/09 12:17:13;;;;;;;13.88;3.17;;;;;;;10.03;60.28;96514.09;5046802;28;20158;-89
2021/12/09 12:23:20;;;;;;;12.90;2.03;;;;;;;9.67;62.07;96509.50;5066774;28;20049;-89
2021/12/09 12:28:43;;;;;;;11.73;2.33;;;;;;;10.57;59.80;96486.53;5066509;28;20045;-88
2021/12/09 12:40:07;;;;;;;15.57;2.60;;;;;;;11.44;55.99;96508.56;5065440;28;20140;-89
2021/12/09 12:42:50;;;;;;;13.32;2.53;;;;;;;8.83;63.70;96504.19;5048715;28;20021;-89
2021/12/09 12:45:41;;;;;;;11.50;1.88;;;;;;;9.48;62.44;96486.88;5063164;28;20727;-89
2021/12/09 12:48:36;;;;;;;11.43;2.10;;;;;;;8.52;64.89;96492.38;5049369;28;20812;-89
2021/12/09 12:51:09;;;;;;;15.85;2.30;;;;;;;8.90;63.96;96486.59;5062045;28;20021;-89
2021/12/09 12:53:48;;;;;;;12.90;2.05;;;;;;;10.34;64.68;96489.28;5061951;28;20079;-89
2021/12/09 12:56:23;;;;;;;14.57;1.58;;;;;;;9.28;63.73;96484.22;5064175;28;20044;-88
2021/12/09 12:59:05;;;;;;;14.13;2.03;;;;;;;9.68;63.38;96486.03;5052102;28;20028;-89
2021/12/09 13:01:32;;;;;;;16.50;2.00;;;;;;;10.20;61.10;96482.94;5054326;28;20060;-92
2021/12/09 13:04:14;;;;;;;9.07;1.50;;;;;;;10.81;60.10;96452.41;5050156;28;20112;-89
2021/12/09 13:06:54;;;;;;;9.20;1.70;;;;;;;11.60;54.28;96430.34;5048225;28;20527;-90
2021/12/09 13:09:37;;;;;;;8.23;1.60;;;;;;;11.98;58.41;96458.88;5046369;28;20125;-90
2021/12/09 13:12:09;;;;;;;9.82;1.85;;;;;;;12.21;53.68;96451.66;5060997;28;20826;-89
2021/12/09 13:15:12;;;;;;;12.02;1.88;;;;;;;11.49;58.04;96438.72;5049964;28;20127;-89
2021/12/09 13:17:41;;;;;;;12.13;1.80;;;;;;;9.65;61.15;96421.09;5065081;28;20035;-89
2021/12/09 13:20:29;;;;;;;14.43;2.75;;;;;;;10.47;59.63;96419.28;5048084;28;20551;-90
2021/12/09 13:23:22;;;;;;;10.30;1.98;;;;;;;11.42;58.31;96432.94;5066191;28;20056;-89
2021/12/09 13:26:23;;;;;;;7.57;1.50;;;;;;;11.97;55.11;96431.09;5053400;28;20054;-89
2021/12/09 13:28:59;;;;;;;19.50;2.03;;;;;;;12.68;55.98;96418.63;5058262;28;20300;-90
2021/12/09 13:32:19;;;;;;;14.60;2.05;;;;;;;12.30;55.23;96377.97;5065423;28;20031;-90
2021/12/09 13:35:01;;;;;;;12.70;1.60;;;;;;;10.17;57.95;96391.91;5075031;28;20046;-89
2021/12/09 13:48:40;;;;;;;9.95;1.30;;;;;;;10.00;55.49;96377.03;4966304;28;20121;-91
2021/12/09 13:51:20;;;;;;;6.53;1.27;;;;;;;9.74;57.71;96373.84;4966198;28;20042;-89
2021/12/09 13:56:54;;;;;;;11.18;1.63;;;;;;;7.89;62.67;96393.38;4908235;29;20186;-90
2021/12/09 13:59:22;;;;;;;7.57;1.15;;;;;;;10.19;59.88;96355.41;4894086;29;20044;-91
2021/12/09 14:01:52;;;;;;;13.82;1.70;;;;;;;7.49;63.94;96382.69;4909778;29;20047;-91
2021/12/09 14:04:21;;;;;;;9.60;1.42;;;;;;;10.06;61.02;96360.28;4907275;29;20040;-92
2021/12/09 14:07:10;;;;;;;8.35;1.52;;;;;;;12.56;52.69;96357.41;4905772;29;20111;-92
2021/12/09 14:09:38;;;;;;;13.20;1.40;;;;;;;11.81;52.97;96326.56;4909023;29;20059;-92
2021/12/09 14:12:05;;;;;;;7.90;1.50;;;;;;;11.28;61.07;96349.28;4908021;29;20036;-92
2021/12/09 14:14:43;;;;;;;8.77;1.50;;;;;;;12.41;53.30;96343.41;4908622;29;20420;-92
2021/12/09 14:17:13;;;;;;;9.20;1.52;;;;;;;7.79;63.75;96354.78;4918592;29;20043;-91
2021/12/09 14:20:02;;;;;;;10.20;1.38;;;;;;;9.37;61.04;96326.03;4926761;29;20032;-92
2021/12/09 14:22:32;;;;;;;9.05;1.95;;;;;;;11.91;62.47;96279.88;4941163;28;20998;-90
2021/12/09 14:25:05;;;;;;;5.68;1.30;;;;;;;8.32;62.21;96308.66;4964473;28;20043;-90
2021/12/09 14:27:31;;;;;;;13.40;1.50;;;;;;;7.73;63.87;96313.50;4992228;28;20119;-89
2021/12/09 14:29:58;;;;;;;13.45;1.75;;;;;;;11.44;57.34;96311.06;5024351;28;20029;-90
2021/12/09 14:32:28;;;;;;;7.43;1.20;;;;;;;8.19;59.90;96288.38;5025089;28;20040;-90
2021/12/09 14:34:57;;;;;;;9.32;1.42;;;;;;;7.71;63.64;96317.91;5021459;28;20116;-89
2021/12/09 14:37:26;;;;;;;7.53;1.35;;;;;;;10.46;61.25;96305.53;5019623;28;20026;-91
2021/12/09 14:40:15;;;;;;;11.02;1.73;;;;;;;9.31;64.71;96302.03;5020935;28;20025;-90
2021/12/09 14:42:54;;;;;;;9.40;1.70;;;;;;;10.31;62.60;96305.28;5022551;28;20045;-90
2021/12/09 14:45:22;;;;;;;10.02;1.42;;;;;;;8.84;61.88;96285.81;5036686;28;20044;-90
2021/12/09 14:48:07;;;;;;;9.32;1.60;;;;;;;10.48;67.03;96288.91;5025159;28;20068;-90
2021/12/09 14:50:40;;;;;;;11.00;1.80;;;;;;;10.38;64.19;96249.44;5025352;28;20029;-89
2021/12/09 14:53:07;;;;;;;10.57;1.60;;;;;;;14.25;48.81;96254.00;5022563;28;20053;-90
2021/12/09 14:55:39;;;;;;;12.32;1.90;;;;;;;7.25;68.04;96283.25;5019892;28;20026;-89
2021/12/09 14:58:09;;;;;;;14.90;1.83;;;;;;;6.87;71.28;96249.19;5019305;28;20113;-90
2021/12/09 15:00:38;;;;;;;11.65;1.73;;;;;;;7.25;70.14;96257.34;5030644;28;20045;-90